sensor_id;sensor_type;location;lat;lon;timestamp;temperature;humidity
37460;DHT22;23318;50.966;5.284;2023-07-31T00:00:25;16.50;99.90
37460;DHT22;23318;50.966;5.284;2023-07-31T00:02:52;16.40;99.90
37460;DHT22;23318;50.966;5.284;2023-07-31T00:05:18;16.50;99.90
37460;DHT22;23318;50.966;5.284;2023-07-31T00:07:43;16.40;99.90
37460;DHT22;23318;50.966;5.284;2023-07-31T00:10:09;16.40;99.90
37460;DHT22;23318;50.966;5.284;2023-07-31T00:12:35;16.40;99.90
37460;DHT22;23318;50.966;5.284;2023-07-31T00:15:01;16.30;99.90
37460;DHT22;23318;50.966;5.284;2023-07-31T00:17:28;16.40;99.90
37460;DHT22;23318;50.966;5.284;2023-07-31T00:19:53;16.50;99.90
37460;DHT22;23318;50.966;5.284;2023-07-31T00:22:19;16.40;99.90
37460;DHT22;23318;50.966;5.284;2023-07-31T00:24:44;16.50;99.90
37460;DHT22;23318;50.966;5.284;2023-07-31T00:27:10;16.50;99.90
37460;DHT22;23318;50.966;5.284;2023-07-31T00:29:36;16.40;99.90
37460;DHT22;23318;50.966;5.284;2023-07-31T00:32:02;16.40;99.90
37460;DHT22;23318;50.966;5.284;2023-07-31T00:34:27;16.40;99.90
37460;DHT22;23318;50.966;5.284;2023-07-31T00:36:53;16.40;99.90
37460;DHT22;23318;50.966;5.284;2023-07-31T00:39:18;16.40;99.90
37460;DHT22;23318;50.966;5.284;2023-07-31T00:41:44;16.40;99.90
37460;DHT22;23318;50.966;5.284;2023-07-31T00:44:10;16.40;99.90
37460;DHT22;23318;50.966;5.284;2023-07-31T00:46:37;16.40;99.90
37460;DHT22;23318;50.966;5.284;2023-07-31T00:49:03;16.50;99.90
37460;DHT22;23318;50.966;5.284;2023-07-31T00:51:29;16.50;99.90
37460;DHT22;23318;50.966;5.284;2023-07-31T00:53:55;16.60;99.90
37460;DHT22;23318;50.966;5.284;2023-07-31T00:56:22;16.60;99.90
37460;DHT22;23318;50.966;5.284;2023-07-31T00:58:48;16.60;99.90
37460;DHT22;23318;50.966;5.284;2023-07-31T01:01:13;16.60;99.90
37460;DHT22;23318;50.966;5.284;2023-07-31T01:03:39;16.60;99.90
37460;DHT22;23318;50.966;5.284;2023-07-31T01:09:02;16.60;99.90
37460;DHT22;23318;50.966;5.284;2023-07-31T01:11:31;16.60;99.90
37460;DHT22;23318;50.966;5.284;2023-07-31T01:13:57;16.60;99.90
37460;DHT22;23318;50.966;5.284;2023-07-31T01:16:25;16.70;99.90
37460;DHT22;23318;50.966;5.284;2023-07-31T01:18:51;16.70;99.90
37460;DHT22;23318;50.966;5.284;2023-07-31T01:27:32;16.80;99.90
37460;DHT22;23318;50.966;5.284;2023-07-31T01:32:29;16.70;99.90
37460;DHT22;23318;50.966;5.284;2023-07-31T01:34:57;16.70;99.90
37460;DHT22;23318;50.966;5.284;2023-07-31T01:37:29;16.80;99.90
37460;DHT22;23318;50.966;5.284;2023-07-31T01:39:55;16.80;99.90
37460;DHT22;23318;50.966;5.284;2023-07-31T01:42:21;16.80;99.90
37460;DHT22;23318;50.966;5.284;2023-07-31T01:44:46;16.80;99.90
37460;DHT22;23318;50.966;5.284;2023-07-31T01:47:12;16.80;99.90
37460;DHT22;23318;50.966;5.284;2023-07-31T01:49:38;16.80;99.90
37460;DHT22;23318;50.966;5.284;2023-07-31T01:52:04;16.80;99.90
37460;DHT22;23318;50.966;5.284;2023-07-31T01:54:29;16.80;99.90
37460;DHT22;23318;50.966;5.284;2023-07-31T01:56:55;16.80;99.90
37460;DHT22;23318;50.966;5.284;2023-07-31T01:59:21;16.90;99.90
37460;DHT22;23318;50.966;5.284;2023-07-31T02:01:46;16.90;99.90
37460;DHT22;23318;50.966;5.284;2023-07-31T02:04:12;16.90;99.90
37460;DHT22;23318;50.966;5.284;2023-07-31T02:06:38;17.00;99.90
37460;DHT22;23318;50.966;5.284;2023-07-31T02:09:04;17.10;99.90
37460;DHT22;23318;50.966;5.284;2023-07-31T02:11:30;17.10;99.90
37460;DHT22;23318;50.966;5.284;2023-07-31T02:13:55;17.10;99.90
37460;DHT22;23318;50.966;5.284;2023-07-31T02:16:21;17.00;99.90
37460;DHT22;23318;50.966;5.284;2023-07-31T02:18:47;17.10;99.90
37460;DHT22;23318;50.966;5.284;2023-07-31T02:21:12;17.00;99.90
37460;DHT22;23318;50.966;5.284;2023-07-31T02:23:38;17.10;99.90
37460;DHT22;23318;50.966;5.284;2023-07-31T02:26:03;17.00;99.90
37460;DHT22;23318;50.966;5.284;2023-07-31T02:28:30;17.10;99.90
37460;DHT22;23318;50.966;5.284;2023-07-31T02:30:55;17.10;99.90
37460;DHT22;23318;50.966;5.284;2023-07-31T02:33:21;17.00;99.90
37460;DHT22;23318;50.966;5.284;2023-07-31T02:35:47;17.00;99.90
37460;DHT22;23318;50.966;5.284;2023-07-31T02:38:12;16.90;99.90
37460;DHT22;23318;50.966;5.284;2023-07-31T02:40:40;17.00;99.90
37460;DHT22;23318;50.966;5.284;2023-07-31T02:43:07;17.00;99.90
37460;DHT22;23318;50.966;5.284;2023-07-31T02:45:33;17.00;99.90
37460;DHT22;23318;50.966;5.284;2023-07-31T02:47:58;16.90;99.90
37460;DHT22;23318;50.966;5.284;2023-07-31T02:50:24;17.00;99.90
37460;DHT22;23318;50.966;5.284;2023-07-31T02:52:50;17.00;99.90
37460;DHT22;23318;50.966;5.284;2023-07-31T02:55:15;16.90;99.90
37460;DHT22;23318;50.966;5.284;2023-07-31T02:57:41;16.90;99.90
37460;DHT22;23318;50.966;5.284;2023-07-31T03:00:07;16.80;99.90
37460;DHT22;23318;50.966;5.284;2023-07-31T03:02:33;16.90;99.90
37460;DHT22;23318;50.966;5.284;2023-07-31T03:04:58;16.90;99.90
37460;DHT22;23318;50.966;5.284;2023-07-31T03:07:24;17.00;99.90
37460;DHT22;23318;50.966;5.284;2023-07-31T03:09:50;17.00;99.90
37460;DHT22;23318;50.966;5.284;2023-07-31T03:12:16;17.00;99.90
37460;DHT22;23318;50.966;5.284;2023-07-31T03:14:41;17.00;99.90
37460;DHT22;23318;50.966;5.284;2023-07-31T03:17:07;17.00;99.90
37460;DHT22;23318;50.966;5.284;2023-07-31T03:19:33;17.00;99.90
37460;DHT22;23318;50.966;5.284;2023-07-31T03:22:01;17.10;99.90
37460;DHT22;23318;50.966;5.284;2023-07-31T03:24:28;17.00;99.90
37460;DHT22;23318;50.966;5.284;2023-07-31T03:26:54;17.10;99.90
37460;DHT22;23318;50.966;5.284;2023-07-31T03:29:20;17.10;99.90
37460;DHT22;23318;50.966;5.284;2023-07-31T03:31:45;17.00;99.90
37460;DHT22;23318;50.966;5.284;2023-07-31T03:34:11;17.10;99.90
37460;DHT22;23318;50.966;5.284;2023-07-31T03:36:36;17.10;99.90
37460;DHT22;23318;50.966;5.284;2023-07-31T03:39:02;17.10;99.90
37460;DHT22;23318;50.966;5.284;2023-07-31T03:41:28;17.10;99.90
37460;DHT22;23318;50.966;5.284;2023-07-31T03:43:54;17.20;99.90
37460;DHT22;23318;50.966;5.284;2023-07-31T03:46:23;17.20;99.90
37460;DHT22;23318;50.966;5.284;2023-07-31T03:48:49;17.30;99.90
37460;DHT22;23318;50.966;5.284;2023-07-31T03:51:15;17.20;99.90
37460;DHT22;23318;50.966;5.284;2023-07-31T03:53:42;17.30;99.90
37460;DHT22;23318;50.966;5.284;2023-07-31T03:56:08;17.40;99.90
37460;DHT22;23318;50.966;5.284;2023-07-31T03:58:33;17.30;99.90
37460;DHT22;23318;50.966;5.284;2023-07-31T04:01:00;17.20;99.90
37460;DHT22;23318;50.966;5.284;2023-07-31T04:03:26;17.20;99.90
37460;DHT22;23318;50.966;5.284;2023-07-31T04:05:54;17.20;99.90
37460;DHT22;23318;50.966;5.284;2023-07-31T04:08:24;17.20;99.90
37460;DHT22;23318;50.966;5.284;2023-07-31T04:10:50;17.20;99.90
37460;DHT22;23318;50.966;5.284;2023-07-31T04:13:16;17.30;99.90
37460;DHT22;23318;50.966;5.284;2023-07-31T04:15:42;17.30;99.90
37460;DHT22;23318;50.966;5.284;2023-07-31T04:18:07;17.20;99.90
37460;DHT22;23318;50.966;5.284;2023-07-31T04:20:33;17.30;99.90
37460;DHT22;23318;50.966;5.284;2023-07-31T04:22:59;17.20;99.90
37460;DHT22;23318;50.966;5.284;2023-07-31T04:25:24;17.20;99.90
37460;DHT22;23318;50.966;5.284;2023-07-31T04:27:50;17.20;99.90
37460;DHT22;23318;50.966;5.284;2023-07-31T04:30:16;17.10;99.90
37460;DHT22;23318;50.966;5.284;2023-07-31T04:32:41;17.10;99.90
37460;DHT22;23318;50.966;5.284;2023-07-31T04:35:07;17.10;99.90
37460;DHT22;23318;50.966;5.284;2023-07-31T04:37:33;17.10;99.90
37460;DHT22;23318;50.966;5.284;2023-07-31T04:39:59;17.10;99.90
37460;DHT22;23318;50.966;5.284;2023-07-31T04:42:24;16.90;99.90
37460;DHT22;23318;50.966;5.284;2023-07-31T04:44:50;16.90;99.90
37460;DHT22;23318;50.966;5.284;2023-07-31T04:47:16;16.80;99.90
37460;DHT22;23318;50.966;5.284;2023-07-31T04:49:41;16.70;99.90
37460;DHT22;23318;50.966;5.284;2023-07-31T04:52:07;16.50;99.90
37460;DHT22;23318;50.966;5.284;2023-07-31T04:54:33;16.50;99.90
37460;DHT22;23318;50.966;5.284;2023-07-31T04:56:58;16.40;99.90
37460;DHT22;23318;50.966;5.284;2023-07-31T04:59:24;16.40;99.90
37460;DHT22;23318;50.966;5.284;2023-07-31T05:01:50;16.40;99.90
37460;DHT22;23318;50.966;5.284;2023-07-31T05:04:15;16.30;99.90
37460;DHT22;23318;50.966;5.284;2023-07-31T05:06:41;16.30;99.90
37460;DHT22;23318;50.966;5.284;2023-07-31T05:09:07;16.20;99.90
37460;DHT22;23318;50.966;5.284;2023-07-31T05:11:34;16.20;99.90
37460;DHT22;23318;50.966;5.284;2023-07-31T05:14:00;16.20;99.90
37460;DHT22;23318;50.966;5.284;2023-07-31T05:16:26;16.30;99.90
37460;DHT22;23318;50.966;5.284;2023-07-31T05:18:51;16.20;99.90
37460;DHT22;23318;50.966;5.284;2023-07-31T05:21:17;16.30;99.90
37460;DHT22;23318;50.966;5.284;2023-07-31T05:23:42;16.30;99.90
37460;DHT22;23318;50.966;5.284;2023-07-31T05:26:08;16.30;99.90
37460;DHT22;23318;50.966;5.284;2023-07-31T05:28:37;16.20;99.90
37460;DHT22;23318;50.966;5.284;2023-07-31T05:31:04;16.30;99.90
37460;DHT22;23318;50.966;5.284;2023-07-31T05:33:29;16.30;99.90
37460;DHT22;23318;50.966;5.284;2023-07-31T05:35:56;16.30;99.90
37460;DHT22;23318;50.966;5.284;2023-07-31T05:38:22;16.30;99.90
37460;DHT22;23318;50.966;5.284;2023-07-31T05:40:48;16.30;99.90
37460;DHT22;23318;50.966;5.284;2023-07-31T05:43:14;16.30;99.90
37460;DHT22;23318;50.966;5.284;2023-07-31T05:45:41;16.40;99.90
37460;DHT22;23318;50.966;5.284;2023-07-31T05:48:07;16.40;99.90
37460;DHT22;23318;50.966;5.284;2023-07-31T05:50:33;16.40;99.90
37460;DHT22;23318;50.966;5.284;2023-07-31T05:52:58;16.30;99.90
37460;DHT22;23318;50.966;5.284;2023-07-31T05:55:24;16.30;99.90
37460;DHT22;23318;50.966;5.284;2023-07-31T05:57:52;16.30;99.90
37460;DHT22;23318;50.966;5.284;2023-07-31T06:00:18;16.30;99.90
37460;DHT22;23318;50.966;5.284;2023-07-31T06:02:44;16.30;99.90
37460;DHT22;23318;50.966;5.284;2023-07-31T06:05:09;16.30;99.90
37460;DHT22;23318;50.966;5.284;2023-07-31T06:07:35;16.30;99.90
37460;DHT22;23318;50.966;5.284;2023-07-31T06:10:01;16.30;99.90
37460;DHT22;23318;50.966;5.284;2023-07-31T06:12:34;16.30;99.90
37460;DHT22;23318;50.966;5.284;2023-07-31T06:14:59;16.20;99.90
37460;DHT22;23318;50.966;5.284;2023-07-31T06:17:25;16.20;99.90
37460;DHT22;23318;50.966;5.284;2023-07-31T06:19:54;16.20;99.90
37460;DHT22;23318;50.966;5.284;2023-07-31T06:22:20;16.10;99.90
37460;DHT22;23318;50.966;5.284;2023-07-31T06:24:46;16.10;99.90
37460;DHT22;23318;50.966;5.284;2023-07-31T06:27:12;16.10;99.90
37460;DHT22;23318;50.966;5.284;2023-07-31T06:29:37;16.00;99.90
37460;DHT22;23318;50.966;5.284;2023-07-31T06:32:03;16.00;99.90
37460;DHT22;23318;50.966;5.284;2023-07-31T06:34:29;15.90;99.90
37460;DHT22;23318;50.966;5.284;2023-07-31T06:36:56;15.90;99.90
37460;DHT22;23318;50.966;5.284;2023-07-31T06:39:21;15.90;99.90
37460;DHT22;23318;50.966;5.284;2023-07-31T06:41:47;15.80;99.90
37460;DHT22;23318;50.966;5.284;2023-07-31T06:44:13;15.90;99.90
37460;DHT22;23318;50.966;5.284;2023-07-31T06:46:38;15.90;99.90
37460;DHT22;23318;50.966;5.284;2023-07-31T06:49:04;16.00;99.90
37460;DHT22;23318;50.966;5.284;2023-07-31T06:51:30;16.00;99.90
37460;DHT22;23318;50.966;5.284;2023-07-31T06:53:57;16.00;99.90
37460;DHT22;23318;50.966;5.284;2023-07-31T06:56:23;16.00;99.90
37460;DHT22;23318;50.966;5.284;2023-07-31T06:58:49;16.00;99.90
37460;DHT22;23318;50.966;5.284;2023-07-31T07:01:14;16.00;99.90
37460;DHT22;23318;50.966;5.284;2023-07-31T07:03:40;16.10;99.90
37460;DHT22;23318;50.966;5.284;2023-07-31T07:06:05;16.10;99.90
37460;DHT22;23318;50.966;5.284;2023-07-31T07:08:31;16.10;99.90
37460;DHT22;23318;50.966;5.284;2023-07-31T07:10:57;16.10;99.90
37460;DHT22;23318;50.966;5.284;2023-07-31T07:13:22;16.10;99.90
37460;DHT22;23318;50.966;5.284;2023-07-31T07:15:49;16.20;99.90
37460;DHT22;23318;50.966;5.284;2023-07-31T07:18:15;16.20;99.90
37460;DHT22;23318;50.966;5.284;2023-07-31T07:20:45;16.20;99.90
37460;DHT22;23318;50.966;5.284;2023-07-31T07:23:11;16.30;99.90
37460;DHT22;23318;50.966;5.284;2023-07-31T07:25:38;16.40;99.90
37460;DHT22;23318;50.966;5.284;2023-07-31T07:28:03;16.30;99.90
37460;DHT22;23318;50.966;5.284;2023-07-31T07:30:29;16.20;99.90
37460;DHT22;23318;50.966;5.284;2023-07-31T07:32:55;16.30;99.90
37460;DHT22;23318;50.966;5.284;2023-07-31T07:35:20;16.30;99.90
37460;DHT22;23318;50.966;5.284;2023-07-31T07:37:48;16.30;99.90
37460;DHT22;23318;50.966;5.284;2023-07-31T07:40:15;16.20;99.90
37460;DHT22;23318;50.966;5.284;2023-07-31T07:42:41;16.20;99.90
37460;DHT22;23318;50.966;5.284;2023-07-31T07:45:07;16.20;99.90
37460;DHT22;23318;50.966;5.284;2023-07-31T07:47:33;16.30;99.90
37460;DHT22;23318;50.966;5.284;2023-07-31T07:49:58;16.30;99.90
37460;DHT22;23318;50.966;5.284;2023-07-31T07:52:24;16.30;99.90
37460;DHT22;23318;50.966;5.284;2023-07-31T07:54:50;16.20;99.90
37460;DHT22;23318;50.966;5.284;2023-07-31T07:57:16;16.30;99.90
37460;DHT22;23318;50.966;5.284;2023-07-31T07:59:42;16.40;99.90
37460;DHT22;23318;50.966;5.284;2023-07-31T08:02:07;16.40;99.90
37460;DHT22;23318;50.966;5.284;2023-07-31T08:04:33;16.50;99.90
37460;DHT22;23318;50.966;5.284;2023-07-31T08:06:59;16.50;99.90
37460;DHT22;23318;50.966;5.284;2023-07-31T08:09:24;16.60;99.90
37460;DHT22;23318;50.966;5.284;2023-07-31T08:11:50;16.50;99.90
37460;DHT22;23318;50.966;5.284;2023-07-31T08:14:16;16.60;99.90
37460;DHT22;23318;50.966;5.284;2023-07-31T08:16:41;16.50;99.90
37460;DHT22;23318;50.966;5.284;2023-07-31T08:19:07;16.70;99.90
37460;DHT22;23318;50.966;5.284;2023-07-31T08:21:33;16.70;99.90
37460;DHT22;23318;50.966;5.284;2023-07-31T08:23:58;16.70;99.90
37460;DHT22;23318;50.966;5.284;2023-07-31T08:26:24;16.80;99.90
37460;DHT22;23318;50.966;5.284;2023-07-31T08:28:50;16.90;99.90
37460;DHT22;23318;50.966;5.284;2023-07-31T08:31:15;16.90;99.90
37460;DHT22;23318;50.966;5.284;2023-07-31T08:33:41;16.90;99.90
37460;DHT22;23318;50.966;5.284;2023-07-31T08:36:07;16.90;99.90
37460;DHT22;23318;50.966;5.284;2023-07-31T08:38:32;17.00;99.90
37460;DHT22;23318;50.966;5.284;2023-07-31T08:40:58;17.00;99.90
37460;DHT22;23318;50.966;5.284;2023-07-31T08:43:27;17.00;99.90
37460;DHT22;23318;50.966;5.284;2023-07-31T08:45:53;16.90;99.90
37460;DHT22;23318;50.966;5.284;2023-07-31T08:48:21;16.90;99.90
37460;DHT22;23318;50.966;5.284;2023-07-31T08:50:47;16.90;99.90
37460;DHT22;23318;50.966;5.284;2023-07-31T08:53:13;16.90;99.90
37460;DHT22;23318;50.966;5.284;2023-07-31T08:55:39;17.00;99.90
37460;DHT22;23318;50.966;5.284;2023-07-31T08:58:05;17.10;99.90
37460;DHT22;23318;50.966;5.284;2023-07-31T09:00:35;17.20;99.90
37460;DHT22;23318;50.966;5.284;2023-07-31T09:03:15;17.30;99.90
37460;DHT22;23318;50.966;5.284;2023-07-31T09:05:44;17.30;99.90
37460;DHT22;23318;50.966;5.284;2023-07-31T09:08:11;17.30;99.90
37460;DHT22;23318;50.966;5.284;2023-07-31T09:10:42;17.30;99.90
37460;DHT22;23318;50.966;5.284;2023-07-31T09:13:08;17.40;99.90
37460;DHT22;23318;50.966;5.284;2023-07-31T09:15:35;17.40;99.90
37460;DHT22;23318;50.966;5.284;2023-07-31T09:18:02;17.30;99.90
37460;DHT22;23318;50.966;5.284;2023-07-31T09:20:28;17.20;99.90
37460;DHT22;23318;50.966;5.284;2023-07-31T09:22:55;17.10;99.90
37460;DHT22;23318;50.966;5.284;2023-07-31T09:25:25;16.90;99.90
37460;DHT22;23318;50.966;5.284;2023-07-31T09:27:56;16.80;99.90
37460;DHT22;23318;50.966;5.284;2023-07-31T09:30:22;16.90;99.90
37460;DHT22;23318;50.966;5.284;2023-07-31T09:32:49;16.80;99.90
37460;DHT22;23318;50.966;5.284;2023-07-31T09:37:53;16.90;99.90
37460;DHT22;23318;50.966;5.284;2023-07-31T09:40:29;16.80;99.90
37460;DHT22;23318;50.966;5.284;2023-07-31T09:43:06;16.80;99.90
37460;DHT22;23318;50.966;5.284;2023-07-31T09:45:37;16.90;99.90
37460;DHT22;23318;50.966;5.284;2023-07-31T09:48:06;16.90;99.90
37460;DHT22;23318;50.966;5.284;2023-07-31T09:50:33;16.90;99.90
37460;DHT22;23318;50.966;5.284;2023-07-31T09:52:58;17.00;99.90
37460;DHT22;23318;50.966;5.284;2023-07-31T09:55:24;17.10;99.90
37460;DHT22;23318;50.966;5.284;2023-07-31T09:57:50;17.10;99.90
37460;DHT22;23318;50.966;5.284;2023-07-31T10:00:18;17.10;99.90
37460;DHT22;23318;50.966;5.284;2023-07-31T10:02:45;17.20;99.90
37460;DHT22;23318;50.966;5.284;2023-07-31T10:05:13;17.40;99.90
37460;DHT22;23318;50.966;5.284;2023-07-31T10:07:43;17.50;99.90
37460;DHT22;23318;50.966;5.284;2023-07-31T10:10:10;17.60;99.90
37460;DHT22;23318;50.966;5.284;2023-07-31T10:12:36;17.60;99.90
37460;DHT22;23318;50.966;5.284;2023-07-31T10:15:02;17.60;99.90
37460;DHT22;23318;50.966;5.284;2023-07-31T10:17:29;17.70;99.90
37460;DHT22;23318;50.966;5.284;2023-07-31T10:19:57;17.70;99.90
37460;DHT22;23318;50.966;5.284;2023-07-31T10:22:25;17.80;99.90
37460;DHT22;23318;50.966;5.284;2023-07-31T10:24:52;17.70;99.90
37460;DHT22;23318;50.966;5.284;2023-07-31T10:27:20;17.80;99.90
37460;DHT22;23318;50.966;5.284;2023-07-31T10:29:46;18.10;99.90
37460;DHT22;23318;50.966;5.284;2023-07-31T10:32:14;18.30;99.90
37460;DHT22;23318;50.966;5.284;2023-07-31T10:34:41;18.30;99.90
37460;DHT22;23318;50.966;5.284;2023-07-31T10:37:20;18.20;99.90
37460;DHT22;23318;50.966;5.284;2023-07-31T10:42:33;18.20;99.90
37460;DHT22;23318;50.966;5.284;2023-07-31T10:45:07;18.50;99.90
37460;DHT22;23318;50.966;5.284;2023-07-31T10:47:42;18.30;99.90
37460;DHT22;23318;50.966;5.284;2023-07-31T10:52:46;18.30;99.90
37460;DHT22;23318;50.966;5.284;2023-07-31T10:57:47;18.30;99.90
37460;DHT22;23318;50.966;5.284;2023-07-31T11:00:29;18.40;99.90
37460;DHT22;23318;50.966;5.284;2023-07-31T11:08:28;18.40;99.90
37460;DHT22;23318;50.966;5.284;2023-07-31T11:13:45;18.70;99.90
37460;DHT22;23318;50.966;5.284;2023-07-31T11:16:13;18.90;99.90
37460;DHT22;23318;50.966;5.284;2023-07-31T11:18:43;19.10;99.90
37460;DHT22;23318;50.966;5.284;2023-07-31T11:21:17;19.10;99.90
37460;DHT22;23318;50.966;5.284;2023-07-31T11:23:47;19.00;99.90
37460;DHT22;23318;50.966;5.284;2023-07-31T11:26:12;19.10;99.90
37460;DHT22;23318;50.966;5.284;2023-07-31T11:28:38;18.90;99.90
37460;DHT22;23318;50.966;5.284;2023-07-31T11:31:04;19.30;99.90
37460;DHT22;23318;50.966;5.284;2023-07-31T11:33:30;19.50;99.90
37460;DHT22;23318;50.966;5.284;2023-07-31T11:35:57;19.40;99.90
37460;DHT22;23318;50.966;5.284;2023-07-31T11:38:32;19.40;99.90
37460;DHT22;23318;50.966;5.284;2023-07-31T11:41:02;19.70;99.90
37460;DHT22;23318;50.966;5.284;2023-07-31T11:43:28;19.70;99.90
37460;DHT22;23318;50.966;5.284;2023-07-31T11:45:58;19.90;99.90
37460;DHT22;23318;50.966;5.284;2023-07-31T11:48:25;19.90;99.90
37460;DHT22;23318;50.966;5.284;2023-07-31T11:50:53;19.90;99.90
37460;DHT22;23318;50.966;5.284;2023-07-31T11:53:35;20.20;99.90
37460;DHT22;23318;50.966;5.284;2023-07-31T11:56:02;20.20;99.90
37460;DHT22;23318;50.966;5.284;2023-07-31T11:58:31;20.40;99.90
37460;DHT22;23318;50.966;5.284;2023-07-31T12:00:58;20.60;99.90
37460;DHT22;23318;50.966;5.284;2023-07-31T12:03:24;20.60;99.90
37460;DHT22;23318;50.966;5.284;2023-07-31T12:05:50;20.50;99.90
37460;DHT22;23318;50.966;5.284;2023-07-31T12:08:15;20.50;99.90
37460;DHT22;23318;50.966;5.284;2023-07-31T12:10:41;20.60;99.90
37460;DHT22;23318;50.966;5.284;2023-07-31T12:13:12;20.60;99.90
37460;DHT22;23318;50.966;5.284;2023-07-31T12:15:44;20.20;99.90
37460;DHT22;23318;50.966;5.284;2023-07-31T12:18:12;20.00;99.90
37460;DHT22;23318;50.966;5.284;2023-07-31T12:20:46;19.90;99.90
37460;DHT22;23318;50.966;5.284;2023-07-31T12:23:20;19.80;99.90
37460;DHT22;23318;50.966;5.284;2023-07-31T12:28:42;19.70;99.90
37460;DHT22;23318;50.966;5.284;2023-07-31T12:31:19;19.80;99.90
37460;DHT22;23318;50.966;5.284;2023-07-31T12:33:46;20.00;99.90
37460;DHT22;23318;50.966;5.284;2023-07-31T12:36:14;20.50;99.90
37460;DHT22;23318;50.966;5.284;2023-07-31T12:38:41;21.20;99.90
37460;DHT22;23318;50.966;5.284;2023-07-31T12:41:07;21.80;99.90
37460;DHT22;23318;50.966;5.284;2023-07-31T12:43:37;22.10;99.90
37460;DHT22;23318;50.966;5.284;2023-07-31T12:46:04;22.10;99.90
37460;DHT22;23318;50.966;5.284;2023-07-31T12:48:31;21.90;99.90
37460;DHT22;23318;50.966;5.284;2023-07-31T12:50:57;21.30;99.90
37460;DHT22;23318;50.966;5.284;2023-07-31T12:53:22;21.00;99.90
37460;DHT22;23318;50.966;5.284;2023-07-31T12:55:48;20.60;99.90
37460;DHT22;23318;50.966;5.284;2023-07-31T12:58:14;20.70;99.90
37460;DHT22;23318;50.966;5.284;2023-07-31T13:00:40;20.80;99.90
37460;DHT22;23318;50.966;5.284;2023-07-31T13:03:05;20.70;99.90
37460;DHT22;23318;50.966;5.284;2023-07-31T13:05:31;20.50;99.90
37460;DHT22;23318;50.966;5.284;2023-07-31T13:07:57;20.20;99.90
37460;DHT22;23318;50.966;5.284;2023-07-31T13:10:23;20.10;99.90
37460;DHT22;23318;50.966;5.284;2023-07-31T13:12:49;20.00;99.90
37460;DHT22;23318;50.966;5.284;2023-07-31T13:15:15;20.00;99.90
37460;DHT22;23318;50.966;5.284;2023-07-31T13:17:42;19.90;99.90
37460;DHT22;23318;50.966;5.284;2023-07-31T13:20:07;20.00;99.90
37460;DHT22;23318;50.966;5.284;2023-07-31T13:22:33;20.00;99.90
37460;DHT22;23318;50.966;5.284;2023-07-31T13:24:59;20.10;99.90
37460;DHT22;23318;50.966;5.284;2023-07-31T13:27:25;20.20;99.90
37460;DHT22;23318;50.966;5.284;2023-07-31T13:29:51;20.00;99.90
37460;DHT22;23318;50.966;5.284;2023-07-31T13:32:18;20.00;99.90
37460;DHT22;23318;50.966;5.284;2023-07-31T13:34:48;20.10;99.90
37460;DHT22;23318;50.966;5.284;2023-07-31T13:37:14;20.10;99.90
37460;DHT22;23318;50.966;5.284;2023-07-31T13:39:40;20.10;99.90
37460;DHT22;23318;50.966;5.284;2023-07-31T13:42:07;20.10;99.90
37460;DHT22;23318;50.966;5.284;2023-07-31T13:44:37;20.00;99.90
37460;DHT22;23318;50.966;5.284;2023-07-31T13:47:03;19.90;99.90
37460;DHT22;23318;50.966;5.284;2023-07-31T13:49:29;19.90;99.90
37460;DHT22;23318;50.966;5.284;2023-07-31T13:51:55;19.80;99.90
37460;DHT22;23318;50.966;5.284;2023-07-31T13:54:22;20.00;99.90
37460;DHT22;23318;50.966;5.284;2023-07-31T13:56:48;20.00;99.90
37460;DHT22;23318;50.966;5.284;2023-07-31T13:59:13;19.80;99.90
37460;DHT22;23318;50.966;5.284;2023-07-31T14:01:41;19.80;99.90
37460;DHT22;23318;50.966;5.284;2023-07-31T14:04:07;19.80;99.90
37460;DHT22;23318;50.966;5.284;2023-07-31T14:06:33;19.80;99.90
37460;DHT22;23318;50.966;5.284;2023-07-31T14:08:58;19.80;99.90
37460;DHT22;23318;50.966;5.284;2023-07-31T14:11:24;19.70;99.90
37460;DHT22;23318;50.966;5.284;2023-07-31T14:13:50;19.70;99.90
37460;DHT22;23318;50.966;5.284;2023-07-31T14:16:16;19.80;99.90
37460;DHT22;23318;50.966;5.284;2023-07-31T14:18:42;19.50;99.90
37460;DHT22;23318;50.966;5.284;2023-07-31T14:21:08;19.40;99.90
37460;DHT22;23318;50.966;5.284;2023-07-31T14:23:34;19.20;99.90
37460;DHT22;23318;50.966;5.284;2023-07-31T14:26:00;19.10;99.90
37460;DHT22;23318;50.966;5.284;2023-07-31T14:28:25;18.70;99.90
37460;DHT22;23318;50.966;5.284;2023-07-31T14:30:51;18.50;99.90
37460;DHT22;23318;50.966;5.284;2023-07-31T14:33:16;18.20;99.90
37460;DHT22;23318;50.966;5.284;2023-07-31T14:35:42;18.10;99.90
37460;DHT22;23318;50.966;5.284;2023-07-31T14:38:08;18.10;99.90
37460;DHT22;23318;50.966;5.284;2023-07-31T14:40:33;17.90;99.90
37460;DHT22;23318;50.966;5.284;2023-07-31T14:42:59;17.90;99.90
37460;DHT22;23318;50.966;5.284;2023-07-31T14:45:25;17.90;99.90
37460;DHT22;23318;50.966;5.284;2023-07-31T14:47:50;17.80;99.90
37460;DHT22;23318;50.966;5.284;2023-07-31T14:50:16;17.70;99.90
37460;DHT22;23318;50.966;5.284;2023-07-31T14:52:42;17.70;99.90
37460;DHT22;23318;50.966;5.284;2023-07-31T14:55:07;17.80;99.90
37460;DHT22;23318;50.966;5.284;2023-07-31T14:57:34;17.80;99.90
37460;DHT22;23318;50.966;5.284;2023-07-31T15:00:00;17.80;99.90
37460;DHT22;23318;50.966;5.284;2023-07-31T15:02:26;17.80;99.90
37460;DHT22;23318;50.966;5.284;2023-07-31T15:04:53;17.80;99.90
37460;DHT22;23318;50.966;5.284;2023-07-31T15:07:18;17.70;99.90
37460;DHT22;23318;50.966;5.284;2023-07-31T15:09:44;17.60;99.90
37460;DHT22;23318;50.966;5.284;2023-07-31T15:12:10;17.70;99.90
37460;DHT22;23318;50.966;5.284;2023-07-31T15:14:35;17.60;99.90
37460;DHT22;23318;50.966;5.284;2023-07-31T15:17:01;17.50;99.90
37460;DHT22;23318;50.966;5.284;2023-07-31T15:19:27;17.50;99.90
37460;DHT22;23318;50.966;5.284;2023-07-31T15:21:52;17.50;99.90
37460;DHT22;23318;50.966;5.284;2023-07-31T15:24:18;17.50;99.90
37460;DHT22;23318;50.966;5.284;2023-07-31T15:26:44;17.50;99.90
37460;DHT22;23318;50.966;5.284;2023-07-31T15:29:09;17.60;99.90
37460;DHT22;23318;50.966;5.284;2023-07-31T15:31:38;17.50;99.90
37460;DHT22;23318;50.966;5.284;2023-07-31T15:34:04;17.50;99.90
37460;DHT22;23318;50.966;5.284;2023-07-31T15:36:29;17.50;99.90
37460;DHT22;23318;50.966;5.284;2023-07-31T15:38:55;17.50;99.90
37460;DHT22;23318;50.966;5.284;2023-07-31T15:41:21;17.50;99.90
37460;DHT22;23318;50.966;5.284;2023-07-31T15:43:46;17.50;99.90
37460;DHT22;23318;50.966;5.284;2023-07-31T15:46:13;17.50;99.90
37460;DHT22;23318;50.966;5.284;2023-07-31T15:48:39;17.50;99.90
37460;DHT22;23318;50.966;5.284;2023-07-31T15:51:04;17.50;99.90
37460;DHT22;23318;50.966;5.284;2023-07-31T15:53:30;17.50;99.90
37460;DHT22;23318;50.966;5.284;2023-07-31T15:55:56;17.50;99.90
37460;DHT22;23318;50.966;5.284;2023-07-31T15:58:22;17.60;99.90